Time;durP1;ratioP1;P1;durP2;ratioP2;P2;SDS_P1;SDS_P2;PMS_P1;PMS_P2;Temp;Humidity;BMP_temperature;BMP_pressure;BME280_temperature;BME280_humidity;BME280_pressure;Samples;Min_cycle;Max_cycle;Signal;HPM_P1;HPM_P2
2022/04/12 00:00:43;;;;;;;7.40;4.43;;;;;;;;;;5108983;28;20222;-91
2022/04/12 00:03:11;;;;;;;5.33;4.33;;;;;;;;;;5108872;28;20343;-92
2022/04/12 00:05:40;;;;;;;5.93;4.63;;;;;;;;;;5111988;28;20200;-91
2022/04/12 00:08:08;;;;;;;5.67;4.30;;;;;;;;;;5112021;28;20208;-92
2022/04/12 00:10:37;;;;;;;5.47;4.27;;;;;;;;;;5107903;28;20290;-91
2022/04/12 00:13:05;;;;;;;5.73;4.00;;;;;;;;;;5106432;28;20683;-92
2022/04/12 00:15:32;;;;;;;6.50;4.50;;;;;;;;;;5122081;27;20206;-92
2022/04/12 00:20:44;;;;;;;7.53;4.17;;;;;;;;;;5093055;28;20242;-92
2022/04/12 00:23:12;;;;;;;6.03;4.83;;;;;;;;;;5115533;28;20324;-91
2022/04/12 00:25:42;;;;;;;6.10;4.40;;;;;;;;;;5111644;28;20212;-91
2022/04/12 00:28:10;;;;;;;8.90;4.43;;;;;;;;;;5103224;28;20204;-91
2022/04/12 00:30:37;;;;;;;5.50;3.83;;;;;;;;;;5115003;28;20215;-92
2022/04/12 00:33:04;;;;;;;6.27;4.00;;;;;;;;;;5131617;27;20256;-92
2022/04/12 00:35:32;;;;;;;6.73;4.50;;;;;;;;;;5111488;28;20238;-92
2022/04/12 00:37:59;;;;;;;5.17;4.03;;;;;;;;;;5113773;28;20631;-91
2022/04/12 00:40:27;;;;;;;5.40;3.90;;;;;;;;;;5115413;28;20196;-91
2022/04/12 00:42:56;;;;;;;5.43;4.17;;;;;;;;;;5125718;27;20207;-90
2022/04/12 00:45:23;;;;;;;6.17;4.00;;;;;;;;;;5119131;27;20607;-92
2022/04/12 00:47:50;;;;;;;4.53;3.77;;;;;;;;;;5098758;28;20294;-91
2022/04/12 00:50:18;;;;;;;4.87;4.07;;;;;;;;;;5097872;28;20202;-92
2022/04/12 00:52:48;;;;;;;5.73;4.37;;;;;;;;;;5103433;28;20220;-92
2022/04/12 00:55:15;;;;;;;6.27;4.00;;;;;;;;;;5114694;28;20200;-91
2022/04/12 00:57:43;;;;;;;5.17;3.90;;;;;;;;;;5115028;27;20629;-92
2022/04/12 01:00:13;;;;;;;5.30;4.10;;;;;;;;;;5106086;28;20204;-91
2022/04/12 01:02:40;;;;;;;5.80;3.80;;;;;;;;;;5096622;27;20581;-91
2022/04/12 01:05:08;;;;;;;6.50;4.10;;;;;;;;;;5113895;27;20207;-92
2022/04/12 01:07:36;;;;;;;5.53;3.90;;;;;;;;;;5107890;28;20277;-91
2022/04/12 01:10:04;;;;;;;4.80;3.90;;;;;;;;;;5105646;28;20212;-91
2022/04/12 01:12:38;;;;;;;7.43;4.53;;;;;;;;;;5113978;28;20220;-91
2022/04/12 01:15:13;;;;;;;6.03;4.23;;;;;;;;;;5111980;27;20239;-92
2022/04/12 01:17:40;;;;;;;5.83;3.83;;;;;;;;;;5103085;28;20236;-91
2022/04/12 01:20:08;;;;;;;5.57;3.63;;;;;;;;;;5113580;28;20203;-91
2022/04/12 01:22:37;;;;;;;6.53;4.63;;;;;;;;;;5114117;28;20204;-92
2022/04/12 01:25:06;;;;;;;5.97;3.70;;;;;;;;;;5119721;27;22245;-91
2022/04/12 01:27:33;;;;;;;3.87;3.47;;;;;;;;;;5110503;28;20232;-91
2022/04/12 01:30:01;;;;;;;4.70;3.63;;;;;;;;;;5113948;28;20580;-92
2022/04/12 01:32:28;;;;;;;5.93;4.23;;;;;;;;;;5111276;28;20228;-91
2022/04/12 01:34:55;;;;;;;6.27;4.27;;;;;;;;;;5103270;28;20215;-91
2022/04/12 01:37:23;;;;;;;6.03;4.37;;;;;;;;;;5113357;28;20227;-92
2022/04/12 01:39:50;;;;;;;5.43;4.10;;;;;;;;;;5113082;28;20674;-91
2022/04/12 01:42:19;;;;;;;4.73;3.77;;;;;;;;;;5113789;28;20637;-91
2022/04/12 01:44:46;;;;;;;4.37;3.77;;;;;;;;;;5107116;27;20213;-91
2022/04/12 01:47:13;;;;;;;5.77;3.57;;;;;;;;;;5106489;28;20228;-92
2022/04/12 01:49:40;;;;;;;6.83;3.93;;;;;;;;;;5113833;28;20723;-91
2022/04/12 01:52:10;;;;;;;4.50;3.43;;;;;;;;;;5113873;28;20223;-92
2022/04/12 01:54:37;;;;;;;5.53;4.10;;;;;;;;;;5100166;28;20209;-92
2022/04/12 01:57:05;;;;;;;4.20;3.70;;;;;;;;;;5108044;27;20224;-91
2022/04/12 01:59:33;;;;;;;3.73;3.10;;;;;;;;;;5113903;28;20200;-92
2022/04/12 02:02:01;;;;;;;5.60;3.40;;;;;;;;;;5110638;28;20234;-91
2022/04/12 02:04:28;;;;;;;3.97;3.30;;;;;;;;;;5105551;27;20539;-91
2022/04/12 02:06:55;;;;;;;4.77;3.40;;;;;;;;;;5119256;27;20235;-92
2022/04/12 02:09:22;;;;;;;3.43;2.90;;;;;;;;;;5113443;28;20212;-92
2022/04/12 02:11:50;;;;;;;4.00;3.43;;;;;;;;;;5109073;28;20250;-90
2022/04/12 02:14:17;;;;;;;4.23;3.30;;;;;;;;;;5108718;28;20233;-91
2022/04/12 02:16:46;;;;;;;3.67;3.30;;;;;;;;;;5113010;28;20223;-92
2022/04/12 02:19:13;;;;;;;5.17;3.67;;;;;;;;;;5106071;27;20219;-92
2022/04/12 02:21:40;;;;;;;3.60;3.30;;;;;;;;;;5108318;28;20212;-92
2022/04/12 02:24:08;;;;;;;3.30;2.97;;;;;;;;;;5101508;28;20234;-91
2022/04/12 02:26:35;;;;;;;4.87;3.57;;;;;;;;;;5119634;27;20277;-92
2022/04/12 02:29:03;;;;;;;3.80;3.20;;;;;;;;;;5113167;28;20712;-92
2022/04/12 02:31:30;;;;;;;3.93;3.17;;;;;;;;;;5104056;28;20250;-93
2022/04/12 02:33:59;;;;;;;3.73;2.77;;;;;;;;;;5110442;28;20297;-92
2022/04/12 02:36:26;;;;;;;3.10;2.80;;;;;;;;;;5126864;27;20638;-92
2022/04/12 02:38:54;;;;;;;3.20;2.90;;;;;;;;;;5133195;27;20203;-92
2022/04/12 02:41:21;;;;;;;5.07;3.03;;;;;;;;;;5107902;27;20199;-91
2022/04/12 02:43:48;;;;;;;2.87;2.60;;;;;;;;;;5119824;27;20260;-92
2022/04/12 02:46:16;;;;;;;4.73;2.87;;;;;;;;;;5113224;27;20615;-91
2022/04/12 02:48:43;;;;;;;5.50;3.57;;;;;;;;;;5106044;28;20211;-92
2022/04/12 02:51:12;;;;;;;3.97;3.50;;;;;;;;;;5103986;28;20223;-91
2022/04/12 02:53:39;;;;;;;4.83;3.50;;;;;;;;;;5112267;28;20214;-92
2022/04/12 02:56:07;;;;;;;5.37;3.67;;;;;;;;;;5123595;27;20284;-91
2022/04/12 02:58:35;;;;;;;5.77;3.43;;;;;;;;;;5112224;27;20570;-92
2022/04/12 03:01:02;;;;;;;4.13;3.57;;;;;;;;;;5108621;28;20208;-92
2022/04/12 03:03:29;;;;;;;4.70;3.40;;;;;;;;;;5105968;28;20227;-90
2022/04/12 03:05:57;;;;;;;4.80;3.87;;;;;;;;;;5109056;28;20270;-91
2022/04/12 03:08:25;;;;;;;4.33;3.40;;;;;;;;;;5108624;28;20212;-92
2022/04/12 03:10:53;;;;;;;4.07;3.57;;;;;;;;;;5112041;28;20203;-91
2022/04/12 03:13:20;;;;;;;5.83;3.37;;;;;;;;;;5107677;28;20276;-92
2022/04/12 03:15:47;;;;;;;2.90;2.57;;;;;;;;;;5108056;28;20579;-92
2022/04/12 03:18:16;;;;;;;3.53;2.40;;;;;;;;;;5112169;28;20245;-92
2022/04/12 03:20:43;;;;;;;4.77;2.70;;;;;;;;;;5112185;28;20223;-91
2022/04/12 03:23:11;;;;;;;3.70;3.30;;;;;;;;;;5105336;28;20227;-91
2022/04/12 03:25:40;;;;;;;3.70;3.30;;;;;;;;;;5099463;28;20205;-92
2022/04/12 03:28:07;;;;;;;4.90;2.87;;;;;;;;;;5110707;28;20204;-91
2022/04/12 03:30:34;;;;;;;3.57;3.27;;;;;;;;;;5111867;28;20204;-92
2022/04/12 03:33:02;;;;;;;3.10;2.80;;;;;;;;;;5107556;28;20235;-91
2022/04/12 03:35:29;;;;;;;5.73;2.93;;;;;;;;;;5106305;28;20214;-92
2022/04/12 03:38:00;;;;;;;3.17;2.80;;;;;;;;;;5111982;28;20231;-92
2022/04/12 03:40:30;;;;;;;5.70;3.73;;;;;;;;;;5111868;28;20560;-91
2022/04/12 03:43:00;;;;;;;8.97;2.90;;;;;;;;;;5103081;28;20205;-91
2022/04/12 03:45:27;;;;;;;3.60;2.97;;;;;;;;;;5108015;28;20295;-92
2022/04/12 03:47:54;;;;;;;3.23;2.53;;;;;;;;;;5111676;28;20215;-91
2022/04/12 03:50:22;;;;;;;4.47;3.17;;;;;;;;;;5112501;28;20211;-91
2022/04/12 03:52:49;;;;;;;3.17;2.70;;;;;;;;;;5112831;28;20763;-92
2022/04/12 03:55:30;;;;;;;3.20;2.80;;;;;;;;;;5114007;27;20621;-92
2022/04/12 03:57:57;;;;;;;3.90;2.50;;;;;;;;;;5116035;28;20251;-92
2022/04/12 04:00:26;;;;;;;3.83;2.20;;;;;;;;;;5114605;28;20235;-92
2022/04/12 04:02:54;;;;;;;4.40;4.00;;;;;;;;;;5110227;28;20235;-92
2022/04/12 04:05:21;;;;;;;5.60;5.20;;;;;;;;;;5115862;28;20712;-92
2022/04/12 04:07:49;;;;;;;3.97;3.13;;;;;;;;;;5115960;28;20639;-91
2022/04/12 04:10:16;;;;;;;4.53;3.57;;;;;;;;;;5110209;28;20204;-91
2022/04/12 04:12:43;;;;;;;4.70;3.20;;;;;;;;;;5114865;28;20265;-92
2022/04/12 04:15:13;;;;;;;4.13;3.47;;;;;;;;;;5119776;27;20252;-92
2022/04/12 04:17:42;;;;;;;6.73;3.37;;;;;;;;;;5133672;27;20239;-92
2022/04/12 04:20:11;;;;;;;3.50;3.20;;;;;;;;;;5106426;28;20212;-92
2022/04/12 04:22:40;;;;;;;3.70;3.07;;;;;;;;;;5119872;27;20289;-92
2022/04/12 04:25:08;;;;;;;3.83;3.07;;;;;;;;;;5116037;27;20208;-91
2022/04/12 04:27:35;;;;;;;4.03;3.47;;;;;;;;;;5110485;28;20750;-91
2022/04/12 04:30:04;;;;;;;4.67;3.13;;;;;;;;;;5113464;28;20208;-92
2022/04/12 04:32:31;;;;;;;4.13;3.30;;;;;;;;;;5105363;28;20234;-91
2022/04/12 04:35:00;;;;;;;5.33;3.27;;;;;;;;;;5115223;27;20208;-92
2022/04/12 04:37:27;;;;;;;5.80;4.00;;;;;;;;;;5099468;28;20229;-91
2022/04/12 04:39:55;;;;;;;4.97;3.23;;;;;;;;;;5113256;28;20264;-92
2022/04/12 04:42:23;;;;;;;5.37;3.47;;;;;;;;;;5115314;28;20200;-92
2022/04/12 04:44:50;;;;;;;3.90;3.13;;;;;;;;;;5115052;28;20647;-92
2022/04/12 04:47:17;;;;;;;4.57;3.40;;;;;;;;;;5107725;28;20554;-91
2022/04/12 04:49:48;;;;;;;5.63;3.23;;;;;;;;;;5111422;28;20257;-91
2022/04/12 04:52:16;;;;;;;5.90;3.57;;;;;;;;;;5115070;28;20216;-91
2022/04/12 04:54:44;;;;;;;3.47;3.17;;;;;;;;;;5113215;27;20203;-92
2022/04/12 04:57:11;;;;;;;4.00;3.10;;;;;;;;;;5106516;28;20235;-91
2022/04/12 04:59:38;;;;;;;4.40;3.43;;;;;;;;;;5114707;28;20207;-92
2022/04/12 05:02:06;;;;;;;7.67;3.50;;;;;;;;;;5111741;28;20204;-92
2022/04/12 05:04:33;;;;;;;4.93;2.97;;;;;;;;;;5109458;27;20765;-91
2022/04/12 05:07:00;;;;;;;4.23;3.00;;;;;;;;;;5117749;27;20223;-91
2022/04/12 05:09:29;;;;;;;5.00;3.73;;;;;;;;;;5112864;28;20280;-91
2022/04/12 05:11:56;;;;;;;4.10;2.97;;;;;;;;;;5103548;28;20217;-92
2022/04/12 05:14:24;;;;;;;6.13;3.20;;;;;;;;;;5114198;28;20249;-91
2022/04/12 05:16:51;;;;;;;5.17;3.27;;;;;;;;;;5114816;28;20296;-91
2022/04/12 05:19:18;;;;;;;8.77;3.83;;;;;;;;;;5112953;28;20638;-92
2022/04/12 05:21:45;;;;;;;6.30;3.47;;;;;;;;;;5110930;28;20272;-91
2022/04/12 05:24:13;;;;;;;6.67;3.73;;;;;;;;;;5113802;28;20591;-92
2022/04/12 05:26:42;;;;;;;6.17;3.90;;;;;;;;;;5114438;28;20242;-90
2022/04/12 05:29:09;;;;;;;5.53;3.60;;;;;;;;;;5105642;28;20204;-92
2022/04/12 05:31:36;;;;;;;7.57;4.00;;;;;;;;;;5114248;28;20247;-92
2022/04/12 05:34:04;;;;;;;5.90;4.30;;;;;;;;;;5113926;28;20674;-92
2022/04/12 05:36:31;;;;;;;6.90;4.43;;;;;;;;;;5111958;27;20284;-91
2022/04/12 05:38:58;;;;;;;4.70;3.40;;;;;;;;;;5113971;28;20215;-92
2022/04/12 05:41:26;;;;;;;6.70;4.07;;;;;;;;;;5114046;28;20834;-92
2022/04/12 05:43:54;;;;;;;5.07;4.10;;;;;;;;;;5113423;27;20200;-91
2022/04/12 05:46:22;;;;;;;5.80;4.60;;;;;;;;;;5122216;27;20220;-92
2022/04/12 05:48:49;;;;;;;5.73;4.43;;;;;;;;;;5114294;28;20208;-92
2022/04/12 05:51:16;;;;;;;5.27;4.57;;;;;;;;;;5114211;28;20212;-91
2022/04/12 05:53:43;;;;;;;5.73;4.67;;;;;;;;;;5106496;28;20617;-92
2022/04/12 05:56:11;;;;;;;6.33;4.53;;;;;;;;;;5118810;27;20567;-92
2022/04/12 05:58:40;;;;;;;7.67;4.73;;;;;;;;;;5118034;28;20208;-92
2022/04/12 06:01:09;;;;;;;6.13;4.10;;;;;;;;;;5113102;28;20204;-92
2022/04/12 06:03:36;;;;;;;5.37;4.00;;;;;;;;;;5093691;28;20227;-92
2022/04/12 06:06:03;;;;;;;6.80;4.47;;;;;;;;;;5113105;28;20228;-92
2022/04/12 06:08:31;;;;;;;5.00;4.20;;;;;;;;;;5113571;28;20203;-92
2022/04/12 06:10:58;;;;;;;5.40;4.57;;;;;;;;;;5109211;28;20229;-92
2022/04/12 06:16:07;;;;;;;9.10;6.17;;;;;;;;;;5114505;27;20219;-91
2022/04/12 06:18:35;;;;;;;20.53;5.80;;;;;;;;;;5111189;28;20264;-91
2022/04/12 06:21:03;;;;;;;10.80;5.20;;;;;;;;;;5105733;28;20444;-91
2022/04/12 06:23:30;;;;;;;5.67;4.47;;;;;;;;;;5112862;28;20200;-91
2022/04/12 06:25:57;;;;;;;5.93;5.03;;;;;;;;;;5127731;27;20226;-92
2022/04/12 06:28:24;;;;;;;5.47;4.30;;;;;;;;;;5107028;27;20258;-91
2022/04/12 06:30:52;;;;;;;5.77;4.73;;;;;;;;;;5112504;28;20208;-92
2022/04/12 06:33:20;;;;;;;7.80;4.23;;;;;;;;;;5113120;28;20296;-92
2022/04/12 06:35:48;;;;;;;6.87;4.77;;;;;;;;;;5109852;27;20235;-91
2022/04/12 06:38:16;;;;;;;5.97;4.70;;;;;;;;;;5105988;28;20204;-92
2022/04/12 06:40:44;;;;;;;7.13;5.00;;;;;;;;;;5112720;28;20214;-92
2022/04/12 06:43:12;;;;;;;7.07;4.50;;;;;;;;;;5113310;28;20231;-92
2022/04/12 06:45:39;;;;;;;5.80;4.53;;;;;;;;;;5105234;27;20220;-91
2022/04/12 06:48:07;;;;;;;7.43;5.17;;;;;;;;;;5112805;28;20253;-92
2022/04/12 06:50:34;;;;;;;5.93;4.43;;;;;;;;;;5113307;28;20261;-91
2022/04/12 06:53:04;;;;;;;5.33;4.80;;;;;;;;;;5109105;28;20681;-91
2022/04/12 06:55:32;;;;;;;5.20;4.70;;;;;;;;;;5115539;27;20711;-92
2022/04/12 06:57:59;;;;;;;9.10;4.87;;;;;;;;;;5112869;28;20311;-91
2022/04/12 07:00:26;;;;;;;5.47;4.90;;;;;;;;;;5113392;28;20256;-92
2022/04/12 07:02:55;;;;;;;7.70;4.57;;;;;;;;;;5105684;27;20239;-91
2022/04/12 07:05:22;;;;;;;4.90;4.40;;;;;;;;;;5116725;27;20643;-92
2022/04/12 07:07:49;;;;;;;5.67;4.20;;;;;;;;;;5133711;27;20231;-92
2022/04/12 07:10:18;;;;;;;5.00;4.40;;;;;;;;;;5116258;27;20265;-90
2022/04/12 07:12:46;;;;;;;5.73;4.07;;;;;;;;;;5112217;28;20223;-92
2022/04/12 07:15:14;;;;;;;5.37;4.67;;;;;;;;;;5113552;28;20669;-91
2022/04/12 07:17:42;;;;;;;4.13;3.60;;;;;;;;;;5108525;28;20220;-91
2022/04/12 07:20:09;;;;;;;4.97;4.20;;;;;;;;;;5108307;28;20214;-92
2022/04/12 07:22:37;;;;;;;5.00;4.10;;;;;;;;;;5114071;28;20200;-92
2022/04/12 07:25:04;;;;;;;4.73;4.13;;;;;;;;;;5117176;28;20207;-91
2022/04/12 07:27:36;;;;;;;6.67;3.70;;;;;;;;;;5118515;28;20691;-91
2022/04/12 07:30:04;;;;;;;3.80;3.40;;;;;;;;;;5121209;28;20207;-91
2022/04/12 07:32:32;;;;;;;9.40;4.13;;;;;;;;;;5124841;28;20267;-89
2022/04/12 07:34:59;;;;;;;4.10;3.67;;;;;;;;;;5126351;27;20271;-91
2022/04/12 07:37:26;;;;;;;5.63;3.50;;;;;;;;;;5124179;27;20224;-91
2022/04/12 07:39:55;;;;;;;35.33;17.57;;;;;;;;;;5115743;28;20253;-90
2022/04/12 07:42:23;;;;;;;4.03;3.63;;;;;;;;;;5126000;27;20633;-92
2022/04/12 07:44:52;;;;;;;4.77;4.00;;;;;;;;;;5125165;27;20761;-91
2022/04/12 07:47:19;;;;;;;5.10;3.70;;;;;;;;;;5108193;28;20243;-91
2022/04/12 07:49:46;;;;;;;3.70;3.40;;;;;;;;;;5113867;28;20210;-91
2022/04/12 07:52:14;;;;;;;5.90;3.70;;;;;;;;;;5114099;28;20265;-91
2022/04/12 07:54:41;;;;;;;5.93;3.40;;;;;;;;;;5108410;27;20215;-91
2022/04/12 07:57:08;;;;;;;4.20;3.60;;;;;;;;;;5112444;28;20281;-91
2022/04/12 07:59:37;;;;;;;5.60;4.10;;;;;;;;;;5113837;28;20223;-91
2022/04/12 08:02:06;;;;;;;4.57;3.70;;;;;;;;;;5115866;28;20687;-93
2022/04/12 08:04:33;;;;;;;3.37;2.63;;;;;;;;;;5103417;28;20254;-92
2022/04/12 08:07:00;;;;;;;3.97;3.57;;;;;;;;;;5108059;28;20292;-92
2022/04/12 08:09:28;;;;;;;4.03;2.93;;;;;;;;;;5110653;28;20272;-92
2022/04/12 08:11:56;;;;;;;4.90;3.20;;;;;;;;;;5113128;28;20210;-91
2022/04/12 08:14:23;;;;;;;7.43;3.27;;;;;;;;;;5119235;28;20301;-93
2022/04/12 08:16:52;;;;;;;7.00;2.93;;;;;;;;;;5115653;28;20228;-93
2022/04/12 08:19:21;;;;;;;5.90;2.97;;;;;;;;;;5112004;28;20216;-93
2022/04/12 08:21:48;;;;;;;3.23;2.83;;;;;;;;;;5116887;28;20208;-92
2022/04/12 08:24:15;;;;;;;3.53;3.00;;;;;;;;;;5119322;28;20666;-93
2022/04/12 08:26:42;;;;;;;4.40;3.03;;;;;;;;;;5113648;28;20228;-92
2022/04/12 08:29:10;;;;;;;52.20;7.80;;;;;;;;;;5107996;28;20234;-91
2022/04/12 08:31:38;;;;;;;3.57;2.50;;;;;;;;;;5115699;28;20612;-91
2022/04/12 08:34:05;;;;;;;5.80;2.80;;;;;;;;;;5114284;28;20280;-91
2022/04/12 08:36:34;;;;;;;10.00;3.43;;;;;;;;;;5106183;27;20714;-92
2022/04/12 08:39:01;;;;;;;31.97;5.93;;;;;;;;;;5108312;28;20215;-93
2022/04/12 08:41:30;;;;;;;3.30;2.80;;;;;;;;;;5115094;28;20208;-92
2022/04/12 08:43:58;;;;;;;3.27;2.87;;;;;;;;;;5110919;28;20205;-92
2022/04/12 08:46:27;;;;;;;3.73;2.70;;;;;;;;;;5111385;28;20258;-91
2022/04/12 08:48:55;;;;;;;4.63;3.17;;;;;;;;;;5114829;28;20207;-92
2022/04/12 08:51:23;;;;;;;4.93;2.70;;;;;;;;;;5115675;28;20212;-91
2022/04/12 08:53:53;;;;;;;3.20;2.27;;;;;;;;;;5109610;27;20488;-92
2022/04/12 08:56:21;;;;;;;3.40;2.50;;;;;;;;;;5115466;27;20254;-92
2022/04/12 08:58:48;;;;;;;3.07;2.50;;;;;;;;;;5115266;28;20200;-91
2022/04/12 09:01:15;;;;;;;6.23;3.57;;;;;;;;;;5115387;28;20212;-92
2022/04/12 09:03:43;;;;;;;3.57;2.23;;;;;;;;;;5105221;28;20200;-91
2022/04/12 09:06:12;;;;;;;7.80;2.83;;;;;;;;;;5109632;27;20227;-92
2022/04/12 09:08:39;;;;;;;4.77;2.37;;;;;;;;;;5115107;28;20265;-92
2022/04/12 09:11:09;;;;;;;3.80;2.37;;;;;;;;;;5103972;28;20200;-91
2022/04/12 09:13:37;;;;;;;2.97;2.50;;;;;;;;;;5109490;28;20285;-92
2022/04/12 09:16:08;;;;;;;3.00;2.17;;;;;;;;;;5115024;27;20223;-91
2022/04/12 09:18:36;;;;;;;4.47;2.50;;;;;;;;;;5110049;28;20237;-91
2022/04/12 09:21:14;;;;;;;2.80;2.00;;;;;;;;;;5114035;28;20211;-92
2022/04/12 09:23:49;;;;;;;3.93;2.60;;;;;;;;;;5114004;28;20249;-92
2022/04/12 09:26:18;;;;;;;2.20;2.00;;;;;;;;;;5134157;27;20309;-92
2022/04/12 09:28:45;;;;;;;3.37;2.07;;;;;;;;;;5110996;27;20204;-91
2022/04/12 09:31:13;;;;;;;2.03;1.83;;;;;;;;;;5114250;28;20200;-92
2022/04/12 09:33:41;;;;;;;2.53;2.10;;;;;;;;;;5114063;28;20267;-92
2022/04/12 09:36:09;;;;;;;3.97;1.80;;;;;;;;;;5131923;27;20641;-92
2022/04/12 09:38:37;;;;;;;4.43;1.77;;;;;;;;;;5102749;27;20211;-92
2022/04/12 09:41:15;;;;;;;2.70;1.50;;;;;;;;;;5113312;28;20642;-92
2022/04/12 09:43:51;;;;;;;2.37;1.90;;;;;;;;;;5113892;28;20207;-92
2022/04/12 09:46:19;;;;;;;2.70;1.57;;;;;;;;;;5103917;27;20630;-93
2022/04/12 09:48:47;;;;;;;3.50;2.20;;;;;;;;;;5102536;28;20204;-91
2022/04/12 09:51:14;;;;;;;1.90;1.63;;;;;;;;;;5114021;28;20292;-91
2022/04/12 09:53:42;;;;;;;2.27;1.60;;;;;;;;;;5111955;28;20686;-92
2022/04/12 09:56:16;;;;;;;1.60;1.50;;;;;;;;;;5110287;27;20219;-91
2022/04/12 09:58:46;;;;;;;3.77;1.40;;;;;;;;;;5113689;28;20258;-92
2022/04/12 10:01:14;;;;;;;2.03;1.60;;;;;;;;;;5113494;28;20212;-91
2022/04/12 10:03:41;;;;;;;1.93;1.83;;;;;;;;;;5116835;27;20205;-90
2022/04/12 10:06:08;;;;;;;2.80;1.40;;;;;;;;;;5105221;27;20227;-93
2022/04/12 10:08:37;;;;;;;3.57;1.60;;;;;;;;;;5110627;28;20203;-93
2022/04/12 10:11:04;;;;;;;2.97;1.67;;;;;;;;;;5111822;28;20208;-93
2022/04/12 10:13:32;;;;;;;1.43;1.30;;;;;;;;;;5112522;28;20219;-93
2022/04/12 10:16:02;;;;;;;1.63;1.30;;;;;;;;;;5113546;28;20285;-92
2022/04/12 10:18:30;;;;;;;3.63;1.70;;;;;;;;;;5101671;28;20226;-93
2022/04/12 10:20:58;;;;;;;5.07;1.43;;;;;;;;;;5113552;28;20273;-93
2022/04/12 10:23:26;;;;;;;2.90;1.37;;;;;;;;;;5122586;28;20219;-92
2022/04/12 10:25:54;;;;;;;2.20;1.10;;;;;;;;;;5123039;28;20215;-94
2022/04/12 10:28:22;;;;;;;3.57;1.60;;;;;;;;;;5122904;28;20257;-94
2022/04/12 10:30:49;;;;;;;1.53;1.33;;;;;;;;;;5123265;28;20200;-94
2022/04/12 10:33:26;;;;;;;1.40;1.30;;;;;;;;;;5133181;28;20184;-93
2022/04/12 10:36:02;;;;;;;2.43;1.23;;;;;;;;;;5121910;28;20207;-92
2022/04/12 10:38:39;;;;;;;3.37;1.40;;;;;;;;;;5131229;28;20195;-93
2022/04/12 10:41:14;;;;;;;1.57;1.40;;;;;;;;;;5131105;28;20207;-94
2022/04/12 10:43:42;;;;;;;1.97;1.20;;;;;;;;;;5121873;28;20196;-94
2022/04/12 10:46:12;;;;;;;1.80;1.30;;;;;;;;;;5137777;27;20208;-92
2022/04/12 10:48:40;;;;;;;1.00;0.90;;;;;;;;;;5133605;28;20196;-93
2022/04/12 10:51:08;;;;;;;1.30;1.20;;;;;;;;;;5118991;28;20267;-91
2022/04/12 10:53:55;;;;;;;3.40;1.43;;;;;;;;;;5108599;28;20203;-93
2022/04/12 10:56:25;;;;;;;1.67;1.13;;;;;;;;;;5106063;28;20344;-93
2022/04/12 10:58:52;;;;;;;2.50;1.73;;;;;;;;;;5112761;28;20267;-92
2022/04/12 11:01:30;;;;;;;1.20;1.10;;;;;;;;;;5112502;28;20257;-92
2022/04/12 11:03:59;;;;;;;1.63;1.10;;;;;;;;;;5107352;28;20217;-92
2022/04/12 11:06:27;;;;;;;1.17;1.00;;;;;;;;;;5107075;28;20228;-93
2022/04/12 11:09:18;;;;;;;1.80;1.27;;;;;;;;;;5112865;28;20231;-93
2022/04/12 11:11:48;;;;;;;1.40;1.10;;;;;;;;;;5088161;28;20636;-94
2022/04/12 11:14:22;;;;;;;1.87;1.10;;;;;;;;;;5114820;28;20236;-93
2022/04/12 11:16:51;;;;;;;1.37;1.00;;;;;;;;;;5115277;28;20575;-92
2022/04/12 11:19:22;;;;;;;1.80;1.07;;;;;;;;;;5108598;28;20212;-93
2022/04/12 11:22:03;;;;;;;2.30;1.20;;;;;;;;;;5125937;28;20213;-93
2022/04/12 11:24:31;;;;;;;1.10;1.00;;;;;;;;;;5123195;28;20203;-94
2022/04/12 11:27:04;;;;;;;1.20;1.10;;;;;;;;;;5142441;28;20227;-94
2022/04/12 11:29:34;;;;;;;2.73;1.00;;;;;;;;;;5115146;28;20207;-94
2022/04/12 11:32:01;;;;;;;1.97;0.97;;;;;;;;;;5118243;28;20261;-94
2022/04/12 11:34:31;;;;;;;0.77;0.77;;;;;;;;;;5123148;28;20216;-94
2022/04/12 11:36:59;;;;;;;0.90;0.90;;;;;;;;;;5147416;28;20227;-93
2022/04/12 11:39:27;;;;;;;4.53;1.10;;;;;;;;;;5119298;28;20210;-95
2022/04/12 11:41:58;;;;;;;1.50;0.97;;;;;;;;;;5120247;28;20208;-95
2022/04/12 11:44:25;;;;;;;1.13;0.80;;;;;;;;;;5118174;28;20287;-95
2022/04/12 11:46:57;;;;;;;2.07;0.70;;;;;;;;;;5106924;28;20244;-94
2022/04/12 11:49:30;;;;;;;2.90;0.87;;;;;;;;;;5113638;28;20203;-94
2022/04/12 11:51:59;;;;;;;0.60;0.60;;;;;;;;;;5115141;28;20227;-94
2022/04/12 11:54:27;;;;;;;2.33;0.80;;;;;;;;;;5115500;28;20314;-95
2022/04/12 11:57:01;;;;;;;1.33;0.80;;;;;;;;;;5120843;28;20285;-94
2022/04/12 12:02:12;;;;;;;2.93;0.83;;;;;;;;;;5118636;28;20232;-94
2022/04/12 12:04:46;;;;;;;0.83;0.83;;;;;;;;;;5121308;28;20203;-94
2022/04/12 12:07:14;;;;;;;1.63;1.00;;;;;;;;;;5116683;28;20224;-93
2022/04/12 12:09:56;;;;;;;2.17;1.10;;;;;;;;;;5116873;28;20214;-95
2022/04/12 12:12:31;;;;;;;0.87;0.80;;;;;;;;;;5120308;27;20204;-94
2022/04/12 12:14:59;;;;;;;0.97;0.77;;;;;;;;;;5104622;28;20220;-95
2022/04/12 12:17:28;;;;;;;2.77;0.73;;;;;;;;;;5119509;28;20223;-94
2022/04/12 12:19:56;;;;;;;2.33;0.80;;;;;;;;;;5118933;28;20271;-94
2022/04/12 12:22:26;;;;;;;1.60;1.00;;;;;;;;;;5106881;28;20264;-94
2022/04/12 12:24:55;;;;;;;1.43;1.00;;;;;;;;;;5116767;28;20219;-94
2022/04/12 12:27:29;;;;;;;1.43;0.80;;;;;;;;;;5119318;28;20232;-95
2022/04/12 12:30:00;;;;;;;0.63;0.63;;;;;;;;;;5110183;28;20209;-94
2022/04/12 12:32:31;;;;;;;0.53;0.53;;;;;;;;;;5122278;27;20275;-94
2022/04/12 12:35:04;;;;;;;1.50;0.80;;;;;;;;;;5126567;28;20263;-95
2022/04/12 12:37:31;;;;;;;2.10;0.90;;;;;;;;;;5116030;28;20224;-94
2022/04/12 12:39:59;;;;;;;0.63;0.63;;;;;;;;;;5101693;28;20213;-94
2022/04/12 12:42:26;;;;;;;1.13;0.67;;;;;;;;;;5127129;27;20206;-94
2022/04/12 12:44:53;;;;;;;1.77;0.77;;;;;;;;;;5125608;28;20226;-94
2022/04/12 12:47:23;;;;;;;1.00;0.67;;;;;;;;;;5122189;27;20223;-95
2022/04/12 12:49:51;;;;;;;2.07;1.10;;;;;;;;;;5125060;28;20249;-92
2022/04/12 12:52:21;;;;;;;1.30;0.87;;;;;;;;;;5119632;28;20212;-93
2022/04/12 12:54:55;;;;;;;1.13;0.70;;;;;;;;;;5111301;28;20243;-94
2022/04/12 12:57:36;;;;;;;1.80;0.60;;;;;;;;;;5114861;28;20243;-94
2022/04/12 13:00:06;;;;;;;1.33;0.63;;;;;;;;;;5107406;28;20204;-94
2022/04/12 13:02:34;;;;;;;0.80;0.80;;;;;;;;;;5115807;28;20208;-94
2022/04/12 13:05:03;;;;;;;0.60;0.60;;;;;;;;;;5110657;28;20210;-94
2022/04/12 13:07:33;;;;;;;0.90;0.63;;;;;;;;;;5111243;28;20686;-95
2022/04/12 13:10:06;;;;;;;0.80;0.80;;;;;;;;;;5117025;28;20249;-94
2022/04/12 13:12:33;;;;;;;0.93;0.73;;;;;;;;;;5118753;27;20211;-94
2022/04/12 13:15:01;;;;;;;1.40;0.60;;;;;;;;;;5110933;27;20222;-94
2022/04/12 13:17:28;;;;;;;3.43;0.70;;;;;;;;;;5116609;28;20216;-94
2022/04/12 13:19:57;;;;;;;0.77;0.77;;;;;;;;;;5114250;28;20238;-94
2022/04/12 13:22:24;;;;;;;0.83;0.80;;;;;;;;;;5117063;28;20207;-94
2022/04/12 13:24:53;;;;;;;0.73;0.60;;;;;;;;;;5116639;28;20280;-94
2022/04/12 13:27:21;;;;;;;1.53;0.93;;;;;;;;;;5114828;27;20839;-93
2022/04/12 13:29:48;;;;;;;1.40;0.87;;;;;;;;;;5105129;28;20253;-93
2022/04/12 13:32:15;;;;;;;2.00;0.77;;;;;;;;;;5113714;27;20199;-93
2022/04/12 13:34:42;;;;;;;1.90;0.90;;;;;;;;;;5115371;28;20250;-92
2022/04/12 13:37:10;;;;;;;0.70;0.70;;;;;;;;;;5107106;28;20224;-93
2022/04/12 13:39:37;;;;;;;1.43;0.90;;;;;;;;;;5120093;27;20240;-94
2022/04/12 13:42:06;;;;;;;0.70;0.70;;;;;;;;;;5117121;27;20204;-93
2022/04/12 13:44:34;;;;;;;2.40;0.73;;;;;;;;;;5113738;28;20204;-94
2022/04/12 13:47:02;;;;;;;3.50;1.03;;;;;;;;;;5114479;28;20694;-94
2022/04/12 13:49:29;;;;;;;0.60;0.60;;;;;;;;;;5115421;28;20679;-93
2022/04/12 13:51:57;;;;;;;0.67;0.67;;;;;;;;;;5114895;28;20196;-93
2022/04/12 13:54:24;;;;;;;1.07;0.73;;;;;;;;;;5109105;28;20213;-93
2022/04/12 13:56:51;;;;;;;1.93;1.03;;;;;;;;;;5111008;28;20694;-93
2022/04/12 13:59:20;;;;;;;0.80;0.80;;;;;;;;;;5113912;28;20261;-93
2022/04/12 14:01:48;;;;;;;0.73;0.70;;;;;;;;;;5112358;27;20200;-93
2022/04/12 14:04:15;;;;;;;0.80;0.80;;;;;;;;;;5105953;28;20246;-94
2022/04/12 14:06:42;;;;;;;1.70;0.90;;;;;;;;;;5108697;27;20216;-93
2022/04/12 14:09:10;;;;;;;1.10;1.07;;;;;;;;;;5104485;28;20226;-92
2022/04/12 14:11:39;;;;;;;3.67;1.23;;;;;;;;;;5112941;28;20211;-93
2022/04/12 14:14:07;;;;;;;3.63;1.27;;;;;;;;;;5108987;28;20215;-94
2022/04/12 14:16:36;;;;;;;1.10;1.10;;;;;;;;;;5105987;28;20236;-93
2022/04/12 14:19:03;;;;;;;1.33;1.20;;;;;;;;;;5112083;28;20211;-93
2022/04/12 14:21:31;;;;;;;1.50;1.40;;;;;;;;;;5098066;28;20216;-92
2022/04/12 14:24:00;;;;;;;2.33;1.20;;;;;;;;;;5112593;28;20200;-93
2022/04/12 14:26:27;;;;;;;2.17;1.60;;;;;;;;;;5112428;28;20255;-92
2022/04/12 14:28:54;;;;;;;1.83;1.10;;;;;;;;;;5113553;28;20212;-93
2022/04/12 14:31:22;;;;;;;2.03;1.30;;;;;;;;;;5110695;28;20204;-92
2022/04/12 14:33:50;;;;;;;1.13;1.03;;;;;;;;;;5110736;27;20216;-92
2022/04/12 14:36:18;;;;;;;1.37;1.27;;;;;;;;;;5111549;28;20685;-93
2022/04/12 14:38:45;;;;;;;2.47;1.30;;;;;;;;;;5113412;28;20207;-92
2022/04/12 14:41:12;;;;;;;3.00;1.00;;;;;;;;;;5099158;28;20252;-92
2022/04/12 14:43:39;;;;;;;2.93;1.47;;;;;;;;;;5112248;28;20207;-91
2022/04/12 14:46:07;;;;;;;1.40;1.30;;;;;;;;;;5112560;28;20224;-92
2022/04/12 14:48:34;;;;;;;1.77;1.43;;;;;;;;;;5109479;28;20694;-92
2022/04/12 14:51:03;;;;;;;2.20;1.27;;;;;;;;;;5106532;27;20594;-92
2022/04/12 14:53:30;;;;;;;2.50;1.27;;;;;;;;;;5105916;28;20208;-91
2022/04/12 14:55:57;;;;;;;2.20;2.00;;;;;;;;;;5108916;28;20216;-93
2022/04/12 14:58:27;;;;;;;2.57;1.53;;;;;;;;;;5113792;28;20212;-92